createdAt,value
2023-11-10T00:00:33.409Z,2.38
2023-11-10T00:03:00.051Z,3.95
2023-11-10T00:05:27.446Z,2.75
2023-11-10T00:07:57.281Z,2.30
2023-11-10T00:10:25.166Z,2.22
2023-11-10T00:12:51.696Z,2.08
2023-11-10T00:15:18.267Z,1.67
2023-11-10T00:17:45.209Z,1.60
2023-11-10T00:20:12.522Z,1.65
2023-11-10T00:22:40.775Z,1.70
2023-11-10T00:25:07.893Z,1.92
2023-11-10T00:27:34.634Z,1.73
2023-11-10T00:30:02.352Z,3.78
2023-11-10T00:32:29.182Z,3.20
2023-11-10T00:34:58.112Z,2.88
2023-11-10T00:37:26.420Z,2.60
2023-11-10T00:39:54.262Z,2.55
2023-11-10T00:42:20.790Z,4.90
2023-11-10T00:44:47.492Z,2.22
2023-11-10T00:47:17.589Z,2.25
2023-11-10T00:49:44.134Z,2.22
2023-11-10T00:52:13.510Z,2.30
2023-11-10T00:54:40.373Z,2.00
2023-11-10T00:57:07.021Z,1.92
2023-11-10T00:59:35.321Z,2.35
2023-11-10T01:02:02.173Z,2.13
2023-11-10T01:04:30.304Z,3.42
2023-11-10T01:06:57.091Z,3.70
2023-11-10T01:09:23.776Z,2.88
2023-11-10T01:11:50.384Z,4.45
2023-11-10T01:14:18.760Z,3.17
2023-11-10T01:16:47.360Z,3.35
2023-11-10T01:19:14.437Z,1.58
2023-11-10T01:21:41.467Z,1.33
2023-11-10T01:24:08.265Z,0.95
2023-11-10T01:26:34.913Z,0.60
2023-11-10T01:29:13.541Z,0.52
2023-11-10T01:31:42.589Z,1.00
2023-11-10T01:34:09.681Z,0.50
2023-11-10T01:36:44.278Z,0.30
2023-11-10T01:39:11.353Z,0.40
2023-11-10T01:41:39.185Z,0.25
2023-11-10T01:44:06.173Z,0.73
2023-11-10T01:46:47.849Z,0.45
2023-11-10T01:49:20.803Z,2.15
2023-11-10T01:51:50.810Z,0.80
2023-11-10T01:54:20.004Z,0.30
2023-11-10T01:56:51.360Z,0.30
2023-11-10T01:59:18.455Z,1.95
2023-11-10T02:01:46.886Z,0.45
2023-11-10T02:04:21.059Z,0.65
2023-11-10T02:06:50.062Z,0.20
2023-11-10T02:09:17.175Z,0.28
2023-11-10T02:11:44.057Z,0.52
2023-11-10T02:14:11.731Z,0.65
2023-11-10T02:16:39.107Z,0.40
2023-11-10T02:19:14.872Z,0.38
2023-11-10T02:24:10.806Z,1.13
2023-11-10T02:26:37.707Z,0.40
2023-11-10T02:29:04.592Z,0.70
2023-11-10T02:31:31.316Z,2.72
2023-11-10T02:34:00.937Z,0.88
2023-11-10T02:36:30.879Z,0.80
2023-11-10T02:38:57.730Z,0.30
2023-11-10T02:41:24.250Z,0.75
2023-11-10T02:43:50.851Z,0.98
2023-11-10T02:46:17.541Z,2.72
2023-11-10T02:48:46.590Z,0.73
2023-11-10T02:51:17.062Z,1.27
2023-11-10T02:53:43.820Z,0.68
2023-11-10T02:56:12.635Z,0.40
2023-11-10T02:58:39.413Z,2.40
2023-11-10T03:01:05.950Z,0.40
2023-11-10T03:03:32.779Z,0.57
2023-11-10T03:05:59.419Z,0.68
2023-11-10T03:08:26.669Z,0.30
2023-11-10T03:10:57.798Z,1.13
2023-11-10T03:13:24.914Z,1.70
2023-11-10T03:15:51.501Z,1.15
2023-11-10T03:18:18.437Z,0.60
2023-11-10T03:20:45.780Z,0.60
2023-11-10T03:23:12.548Z,0.43
2023-11-10T03:25:40.826Z,1.08
2023-11-10T03:28:07.394Z,1.25
2023-11-10T03:30:34.243Z,0.57
2023-11-10T03:33:02.967Z,1.02
2023-11-10T03:35:31.897Z,0.70
2023-11-10T03:37:58.433Z,0.60
2023-11-10T03:40:28.221Z,0.68
2023-11-10T03:42:54.796Z,0.70
2023-11-10T03:45:21.427Z,1.45
2023-11-10T03:47:48.320Z,0.75
2023-11-10T03:50:14.924Z,1.35
2023-11-10T03:52:43.835Z,0.40
2023-11-10T03:55:11.034Z,0.45
2023-11-10T03:57:37.698Z,0.60
2023-11-10T04:00:04.857Z,0.85
2023-11-10T04:02:37.342Z,1.95
2023-11-10T04:05:04.086Z,1.00
2023-11-10T04:07:30.681Z,0.50
2023-11-10T04:09:59.746Z,0.43
2023-11-10T04:12:27.725Z,0.68
2023-11-10T04:14:55.304Z,1.13
2023-11-10T04:17:22.184Z,0.40
2023-11-10T04:19:48.719Z,0.68
2023-11-10T04:22:15.464Z,0.73
2023-11-10T04:24:51.612Z,0.30
2023-11-10T04:27:19.992Z,0.38
2023-11-10T04:29:47.046Z,0.25
2023-11-10T04:32:15.552Z,0.40
2023-11-10T04:34:42.089Z,0.38
2023-11-10T04:37:08.992Z,1.85
2023-11-10T04:39:38.694Z,0.55
2023-11-10T04:42:05.796Z,0.32
2023-11-10T04:44:32.335Z,0.20
2023-11-10T04:47:01.128Z,0.20
2023-11-10T04:49:27.898Z,0.47
2023-11-10T04:51:54.480Z,0.68
2023-11-10T04:54:21.195Z,0.35
2023-11-10T04:56:47.850Z,0.50
2023-11-10T04:59:15.193Z,0.38
2023-11-10T05:01:44.403Z,0.50
2023-11-10T05:04:14.364Z,2.03
2023-11-10T05:06:41.941Z,0.55
2023-11-10T05:09:10.195Z,0.30
2023-11-10T05:11:37.413Z,0.30
2023-11-10T05:14:04.718Z,0.52
2023-11-10T05:16:33.305Z,0.22
2023-11-10T05:19:00.198Z,0.95
2023-11-10T05:21:28.249Z,0.70
2023-11-10T05:23:59.793Z,0.40
2023-11-10T05:26:26.982Z,0.20
2023-11-10T05:28:53.492Z,0.20
2023-11-10T05:31:21.155Z,0.10
2023-11-10T05:33:47.771Z,0.98
2023-11-10T05:36:14.729Z,0.80
2023-11-10T05:38:42.247Z,0.20
2023-11-10T05:41:09.065Z,0.30
2023-11-10T05:43:35.605Z,0.20
2023-11-10T05:46:09.285Z,0.20
2023-11-10T05:48:37.651Z,0.30
2023-11-10T05:51:04.832Z,0.10
2023-11-10T05:53:35.220Z,0.20
2023-11-10T05:56:04.502Z,0.20
2023-11-10T05:58:31.506Z,0.28
2023-11-10T06:00:58.084Z,0.10
2023-11-10T06:03:32.834Z,0.15
2023-11-10T06:05:59.518Z,0.10
2023-11-10T06:08:27.812Z,0.10
2023-11-10T06:10:54.667Z,0.13
2023-11-10T06:13:22.259Z,0.10
2023-11-10T06:15:49.432Z,0.20
2023-11-10T06:18:16.184Z,0.20
2023-11-10T06:20:42.759Z,0.45
2023-11-10T06:23:09.363Z,0.50
2023-11-10T06:25:36.215Z,0.50
2023-11-10T06:28:02.943Z,0.47
2023-11-10T06:30:30.584Z,0.68
2023-11-10T06:33:01.594Z,0.80
2023-11-10T06:35:28.171Z,0.52
2023-11-10T06:37:54.726Z,0.40
2023-11-10T06:40:23.444Z,1.20
2023-11-10T06:42:50.157Z,1.02
2023-11-10T06:45:19.106Z,1.42
2023-11-10T06:47:47.543Z,1.40
2023-11-10T06:50:14.268Z,0.60
2023-11-10T06:52:40.887Z,0.43
2023-11-10T06:55:16.191Z,1.13
2023-11-10T06:57:47.698Z,1.63
2023-11-10T07:00:15.209Z,0.70
2023-11-10T07:02:41.843Z,0.50
2023-11-10T07:05:11.282Z,0.50
2023-11-10T07:07:38.039Z,0.75
2023-11-10T07:10:05.661Z,3.30
2023-11-10T07:12:32.717Z,0.60
2023-11-10T07:14:59.879Z,0.50
2023-11-10T07:17:27.680Z,0.68
2023-11-10T07:19:56.481Z,2.28
2023-11-10T07:22:23.294Z,0.57
2023-11-10T07:24:59.322Z,0.45
2023-11-10T07:27:29.958Z,0.60
2023-11-10T07:29:56.578Z,0.52
2023-11-10T07:32:24.208Z,0.65
2023-11-10T07:34:51.232Z,0.40
2023-11-10T07:37:20.354Z,0.60
2023-11-10T07:39:49.261Z,1.60
2023-11-10T07:42:15.898Z,0.73
2023-11-10T07:44:42.410Z,1.33
2023-11-10T07:47:10.655Z,0.50
2023-11-10T07:49:39.132Z,0.90
2023-11-10T07:52:07.128Z,1.45
2023-11-10T07:54:37.085Z,1.08
2023-11-10T07:57:04.077Z,0.77
2023-11-10T07:59:30.648Z,0.73
2023-11-10T08:02:01.602Z,0.70
2023-11-10T08:04:28.463Z,0.57
2023-11-10T08:06:55.128Z,0.82
2023-11-10T08:09:24.790Z,0.40
2023-11-10T08:11:55.072Z,0.77
2023-11-10T08:14:30.271Z,1.45
2023-11-10T08:16:56.862Z,0.82
2023-11-10T08:19:23.418Z,1.27
2023-11-10T08:21:50.389Z,3.80
2023-11-10T08:24:16.940Z,0.50
2023-11-10T08:26:43.947Z,1.50
2023-11-10T08:29:11.134Z,0.50
2023-11-10T08:31:37.878Z,4.32
2023-11-10T08:34:04.574Z,0.57
2023-11-10T08:36:35.947Z,1.02
2023-11-10T08:39:05.011Z,0.65
2023-11-10T08:41:31.569Z,0.60
2023-11-10T08:43:58.219Z,0.60
2023-11-10T08:46:24.863Z,0.93
2023-11-10T08:48:51.576Z,0.60
2023-11-10T08:51:25.746Z,1.05
2023-11-10T08:53:52.310Z,0.75
2023-11-10T08:56:18.941Z,0.45
2023-11-10T08:58:55.902Z,0.30
2023-11-10T09:01:25.224Z,0.93
2023-11-10T09:03:52.049Z,0.95
2023-11-10T09:06:18.824Z,1.05
2023-11-10T09:08:45.355Z,0.73
2023-11-10T09:11:11.865Z,1.70
2023-11-10T09:13:42.993Z,1.10
2023-11-10T09:16:11.108Z,4.03
2023-11-10T09:18:38.147Z,2.13
2023-11-10T09:21:07.431Z,1.48
2023-11-10T09:23:35.954Z,2.40
2023-11-10T09:26:04.907Z,1.60
2023-11-10T09:28:35.510Z,3.80
2023-11-10T09:31:04.262Z,1.20
2023-11-10T09:33:31.002Z,1.35
2023-11-10T09:35:57.713Z,1.55
2023-11-10T09:38:25.069Z,2.58
2023-11-10T09:40:54.920Z,1.88
2023-11-10T09:43:24.867Z,1.17
2023-11-10T09:45:52.913Z,3.00
2023-11-10T09:48:20.898Z,1.30
2023-11-10T09:50:51.736Z,1.85
2023-11-10T09:53:21.871Z,2.40
2023-11-10T09:55:49.285Z,1.02
2023-11-10T09:58:18.625Z,0.57
2023-11-10T10:00:45.332Z,0.47
2023-11-10T10:03:14.363Z,0.85
2023-11-10T10:05:47.668Z,1.55
2023-11-10T10:08:17.873Z,0.82
2023-11-10T10:10:51.568Z,1.20
2023-11-10T10:13:19.287Z,3.55
2023-11-10T10:15:45.852Z,1.90
2023-11-10T10:18:15.379Z,1.52
2023-11-10T10:20:41.977Z,3.03
2023-11-10T10:23:11.336Z,2.28
2023-11-10T10:25:39.694Z,2.35
2023-11-10T10:28:10.110Z,1.90
2023-11-10T10:30:37.972Z,1.02
2023-11-10T10:33:06.964Z,1.15
2023-11-10T10:35:34.403Z,1.08
2023-11-10T10:38:06.057Z,2.05
2023-11-10T10:40:38.465Z,1.95
2023-11-10T10:43:08.025Z,2.55
2023-11-10T10:45:37.343Z,1.23
2023-11-10T10:48:08.663Z,1.75
2023-11-10T10:50:35.417Z,0.40
2023-11-10T10:53:05.656Z,1.30
2023-11-10T10:55:33.626Z,3.42
2023-11-10T10:58:02.604Z,0.82
2023-11-10T11:00:32.400Z,2.08
2023-11-10T11:03:27.449Z,1.38
2023-11-10T11:06:28.952Z,1.92
2023-11-10T11:08:58.443Z,1.50
2023-11-10T11:11:53.964Z,1.67
2023-11-10T11:14:42.884Z,1.30
2023-11-10T11:17:57.885Z,4.13
2023-11-10T11:20:29.556Z,1.77
2023-11-10T11:22:56.314Z,1.27
2023-11-10T11:25:23.229Z,1.85
2023-11-10T11:28:04.233Z,3.85
2023-11-10T11:30:38.028Z,1.90
2023-11-10T11:33:13.929Z,2.08
2023-11-10T11:35:48.478Z,2.65
2023-11-10T11:38:32.761Z,0.63
2023-11-10T11:41:04.677Z,2.40
2023-11-10T11:43:38.487Z,3.22
2023-11-10T11:46:11.259Z,1.17
2023-11-10T11:48:38.260Z,1.33
2023-11-10T11:51:09.949Z,2.25
2023-11-10T11:53:39.466Z,3.65
2023-11-10T11:56:09.204Z,3.10
2023-11-10T11:58:38.894Z,2.58
2023-11-10T12:01:05.708Z,2.20
2023-11-10T12:03:35.066Z,2.58
2023-11-10T12:06:07.447Z,1.67
2023-11-10T12:08:36.325Z,1.25
2023-11-10T12:11:05.545Z,3.92
2023-11-10T12:13:34.741Z,5.72
2023-11-10T12:16:02.104Z,5.43
2023-11-10T12:18:29.323Z,3.75
2023-11-10T12:21:06.570Z,1.40
2023-11-10T12:23:34.776Z,2.72
2023-11-10T12:26:01.474Z,2.85
2023-11-10T12:28:29.839Z,2.95
2023-11-10T12:30:56.433Z,2.83
2023-11-10T12:33:25.129Z,1.92
2023-11-10T12:35:51.880Z,2.30
2023-11-10T12:38:18.460Z,2.38
2023-11-10T12:40:45.405Z,1.42
2023-11-10T12:43:16.161Z,2.55
2023-11-10T12:45:42.760Z,1.10
2023-11-10T12:48:16.678Z,1.30
2023-11-10T12:50:56.685Z,2.60
2023-11-10T12:53:27.243Z,3.17
2023-11-10T12:55:53.814Z,1.88
2023-11-10T12:58:20.551Z,1.73
2023-11-10T13:00:48.507Z,4.93
2023-11-10T13:03:15.222Z,4.97
2023-11-10T13:05:43.613Z,2.28
2023-11-10T13:08:10.125Z,2.90
2023-11-10T13:10:36.725Z,2.10
2023-11-10T13:13:03.559Z,2.35
2023-11-10T13:15:31.056Z,4.55
2023-11-10T13:18:00.099Z,4.13
2023-11-10T13:20:30.483Z,4.45
2023-11-10T13:22:57.816Z,2.80
2023-11-10T13:25:24.520Z,4.45
2023-11-10T13:27:52.102Z,2.67
2023-11-10T13:30:20.150Z,3.65
2023-11-10T15:46:25.818Z,2.10
2023-11-10T15:48:55.094Z,2.47
2023-11-10T15:51:24.668Z,1.98
2023-11-10T15:53:52.501Z,2.58
2023-11-10T15:56:19.191Z,4.78
2023-11-10T15:58:45.770Z,1.90
2023-11-10T16:01:12.656Z,1.38
2023-11-10T16:03:39.427Z,3.10
2023-11-10T16:06:08.665Z,2.65
2023-11-10T16:08:35.445Z,2.17
2023-11-10T16:11:04.525Z,4.28
2023-11-10T16:13:31.150Z,3.35
2023-11-10T16:16:06.440Z,3.10
2023-11-10T16:18:34.226Z,3.15
2023-11-10T16:21:01.097Z,4.15
2023-11-10T16:23:28.341Z,2.47
2023-11-10T16:25:55.022Z,2.08
2023-11-10T16:28:21.600Z,2.88
2023-11-10T16:30:48.326Z,2.60
2023-11-10T16:33:18.136Z,5.55
2023-11-10T16:35:45.514Z,2.58
2023-11-10T16:38:15.571Z,4.65
2023-11-10T16:40:44.093Z,2.40
2023-11-10T16:43:10.988Z,2.80
2023-11-10T16:45:40.713Z,2.75
2023-11-10T16:48:07.719Z,2.30
2023-11-10T16:50:34.276Z,2.65
2023-11-10T16:53:02.627Z,2.70
2023-11-10T16:55:29.232Z,1.88
2023-11-10T16:57:55.974Z,3.15
2023-11-10T17:00:29.914Z,2.75
2023-11-10T17:03:01.378Z,2.47
2023-11-10T17:05:30.441Z,1.83
2023-11-10T17:07:57.164Z,3.17
2023-11-10T17:10:24.077Z,1.88
2023-11-10T17:12:50.695Z,2.92
2023-11-10T17:15:19.242Z,0.68
2023-11-10T17:17:46.576Z,2.03
2023-11-10T17:20:13.340Z,1.55
2023-11-10T17:22:39.951Z,7.20
2023-11-10T17:25:06.922Z,2.45
2023-11-10T17:27:47.234Z,5.15
2023-11-10T17:30:14.743Z,1.10
2023-11-10T17:32:42.753Z,1.88
2023-11-10T17:35:09.562Z,1.25
2023-11-10T17:37:39.082Z,3.30
2023-11-10T17:40:06.647Z,3.30
2023-11-10T17:42:36.187Z,1.83
2023-11-10T17:45:04.119Z,3.95
2023-11-10T17:47:31.251Z,2.55
2023-11-10T17:50:04.774Z,3.65
2023-11-10T17:52:32.004Z,2.03
2023-11-10T17:54:58.652Z,2.38
2023-11-10T17:57:29.598Z,2.50
2023-11-10T17:59:56.140Z,2.60
2023-11-10T18:02:23.765Z,3.67
2023-11-10T18:04:57.629Z,2.78
2023-11-10T18:07:27.864Z,2.65
2023-11-10T18:09:56.516Z,2.42
2023-11-10T18:12:23.104Z,1.20
2023-11-10T18:14:50.985Z,1.85
2023-11-10T18:17:18.036Z,2.67
2023-11-10T18:19:45.612Z,1.73
2023-11-10T18:22:12.357Z,4.80
2023-11-10T18:24:39.503Z,1.42
2023-11-10T18:27:06.398Z,1.30
2023-11-10T18:29:35.543Z,1.83
2023-11-10T18:32:04.674Z,1.25
2023-11-10T18:34:31.344Z,1.48
2023-11-10T18:36:57.961Z,1.58
2023-11-10T18:39:24.790Z,1.48
2023-11-10T18:41:52.339Z,0.70
2023-11-10T18:44:19.886Z,4.30
2023-11-10T18:46:56.716Z,2.13
2023-11-10T18:49:30.436Z,3.60
2023-11-10T18:51:58.433Z,2.13
2023-11-10T18:54:25.802Z,1.92
2023-11-10T18:56:56.211Z,1.48
2023-11-10T18:59:22.763Z,1.92
2023-11-10T19:01:57.319Z,1.45
2023-11-10T19:04:23.862Z,2.00
2023-11-10T19:06:50.530Z,3.92
2023-11-10T19:09:19.646Z,1.73
2023-11-10T19:11:46.170Z,3.08
2023-11-10T19:14:14.095Z,2.55
2023-11-10T19:16:42.988Z,3.15
2023-11-10T19:19:09.556Z,3.22
2023-11-10T19:21:40.473Z,2.45
2023-11-10T19:24:10.098Z,2.60
2023-11-10T19:26:37.279Z,1.98
2023-11-10T19:29:03.833Z,2.05
2023-11-10T19:31:32.428Z,2.05
2023-11-10T19:33:58.965Z,1.88
2023-11-10T19:36:26.968Z,2.65
2023-11-10T19:39:00.147Z,2.72
2023-11-10T19:41:26.703Z,2.25
2023-11-10T19:43:56.398Z,2.88
2023-11-10T19:46:23.330Z,3.30
2023-11-10T19:48:52.216Z,4.57
2023-11-10T19:56:20.870Z,2.08
2023-11-10T20:01:20.857Z,2.42
2023-11-10T20:03:48.119Z,1.63
2023-11-10T20:06:14.999Z,2.47
2023-11-10T20:08:41.759Z,5.80
2023-11-10T20:11:08.288Z,5.25
2023-11-10T20:13:34.835Z,5.28
2023-11-10T20:16:07.505Z,7.15
2023-11-10T20:18:35.718Z,8.23
2023-11-10T20:21:02.611Z,7.90
2023-11-10T20:23:29.181Z,6.88
2023-11-10T20:25:56.345Z,6.57
2023-11-10T20:28:23.190Z,5.68
2023-11-10T20:30:50.336Z,5.32
2023-11-10T20:33:16.921Z,4.55
2023-11-10T20:35:43.646Z,3.47
2023-11-10T20:38:14.513Z,3.08
2023-11-10T20:40:43.204Z,1.50
2023-11-10T20:43:12.592Z,3.00
2023-11-10T20:45:42.486Z,1.80
2023-11-10T20:48:09.775Z,2.90
2023-11-10T20:50:36.429Z,2.13
2023-11-10T20:53:11.290Z,1.17
2023-11-10T20:55:37.819Z,2.20
2023-11-10T20:58:05.422Z,2.30
2023-11-10T21:00:41.479Z,2.03
2023-11-10T21:03:12.196Z,2.13
2023-11-10T21:05:47.656Z,2.45
2023-11-10T21:08:17.498Z,0.40
2023-11-10T21:10:44.697Z,1.42
2023-11-10T21:13:11.689Z,2.95
2023-11-10T21:15:45.548Z,0.98
2023-11-10T21:18:20.853Z,1.65
2023-11-10T21:20:47.990Z,1.40
2023-11-10T21:23:16.598Z,1.08
2023-11-10T21:25:44.713Z,1.85
2023-11-10T21:28:12.657Z,2.15
2023-11-10T21:30:44.853Z,0.95
2023-11-10T21:33:11.896Z,1.38
2023-11-10T21:35:40.936Z,0.30
2023-11-10T21:38:11.780Z,2.78
2023-11-10T21:40:40.142Z,0.82
2023-11-10T21:43:18.297Z,3.85
2023-11-10T21:45:45.702Z,1.63
2023-11-10T21:48:13.831Z,0.98
2023-11-10T21:50:47.240Z,0.70
2023-11-10T21:53:14.346Z,0.73
2023-11-10T21:55:56.991Z,1.05
2023-11-10T21:58:24.459Z,0.65
2023-11-10T22:00:51.194Z,1.13
2023-11-10T22:03:19.596Z,0.50
2023-11-10T22:05:46.468Z,0.52
2023-11-10T22:08:13.202Z,0.40
2023-11-10T22:10:42.224Z,0.40
2023-11-10T22:13:08.998Z,0.20
2023-11-10T22:15:35.617Z,0.38
2023-11-10T22:18:09.494Z,0.45
2023-11-10T22:20:36.879Z,0.60
2023-11-10T22:23:04.785Z,1.00
2023-11-10T22:25:33.237Z,0.75
2023-11-10T22:28:00.481Z,1.90
2023-11-10T22:30:27.820Z,1.52
2023-11-10T22:32:54.594Z,1.38
2023-11-10T22:35:21.105Z,0.88
2023-11-10T22:37:47.668Z,0.50
2023-11-10T22:40:15.725Z,0.47
2023-11-10T22:42:48.368Z,1.17
2023-11-10T22:45:17.661Z,1.48
2023-11-10T22:47:44.551Z,1.25
2023-11-10T22:50:12.616Z,0.68
2023-11-10T22:52:39.367Z,0.38
2023-11-10T22:55:06.335Z,3.83
2023-11-10T22:57:33.046Z,1.00
2023-11-10T23:00:01.815Z,1.45
2023-11-10T23:02:32.495Z,1.15
2023-11-10T23:05:00.344Z,0.60
2023-11-10T23:07:34.217Z,1.05
2023-11-10T23:10:03.555Z,0.98
2023-11-10T23:12:30.419Z,1.42
2023-11-10T23:14:57.096Z,0.40
2023-11-10T23:17:24.102Z,2.47
2023-11-10T23:19:51.845Z,1.00
2023-11-10T23:22:20.232Z,0.68
2023-11-10T23:24:46.998Z,0.82
2023-11-10T23:27:14.106Z,1.92
2023-11-10T23:29:42.263Z,2.03
2023-11-10T23:32:08.843Z,1.63
2023-11-10T23:34:35.360Z,1.58
2023-11-10T23:37:09.936Z,0.85
2023-11-10T23:39:36.609Z,1.98
2023-11-10T23:42:04.821Z,3.75
2023-11-10T23:44:43.229Z,1.63
2023-11-10T23:47:10.109Z,3.25
2023-11-10T23:49:39.838Z,4.13
2023-11-10T23:52:07.245Z,3.78
2023-11-10T23:54:37.730Z,1.67
2023-11-10T23:57:06.354Z,1.70
2023-11-10T23:59:35.436Z,2.05
